LiveATC.Net - Listen to live air traffic control over the Internet!


ICAO: KIFP  IATA: IFP   Airport: Laughlin/Bullhead International Airport
City: Bullhead City   State/Province: Arizona
Country: United States   Continent: North America
KIFP METAR Weather: KIFP 051750Z 36012KT 20SM SKC 20/M04 A3009
KIFP Flight Activity (FlightAware)
KIFP Airport Info   (iFlightPlanner)
KIFP VFR Sectional Chart   (iFlightPlanner) 
KIFP IFR Low Altitude Chart   (iFlightPlanner) 
KIFP IFR High Altitude Chart   (iFlightPlanner) 

KIFP Tower
Feed Status: UP   Listeners: 0
Listen in your browser - HTML5 player (in browser, HTML5)
Click here to listen with your own player (launches your MP3 player)
Archive Access: KIFP Tower
FacilityFrequency
Bullhead Tower123.900
Sponsored by: KTOX 1340AM/104.1FM

NOTICE

Unauthorized use prohibited. See LiveATC.net Terms of Service


Airport/ARTCC Code
Frequency Search
(e.g., 124.400, 128.75)
Site-wide search
 


Browse Feeds
Top 50 Feeds
HF Oceanic Feeds
Coverage Map
Bad Weather Areas

LiveATC FAQ
Offer LiveATC feed
Contact LiveATC.net
Press Inquiries

LiveATC on iPhone
LiveATC on Android

Windows Phone
Windows 8/10

LiveATC Mobile
(Mobile browser)

ATC Audio Archives
Interesting Recordings

LiveATC Forums


Home Page
About LiveATC.net
Make a Donation
Terms of Use
Privacy Policy

Canadian Air Freqs

AIRMETs/SIGMETs

FAA Airport Status
NAS Status
Arrival Demand


Server Software By:
Icecast.org
Liquidsoap